sensor_id;sensor_type;location;lat;lon;timestamp;P1;durP1;ratioP1;P2;durP2;ratioP2
59169;SDS011;52474;52.236;5.114;2024-02-14T00:01:03;29.73;;;17.88;;
59169;SDS011;52474;52.236;5.114;2024-02-14T00:03:29;32.80;;;19.60;;
59169;SDS011;52474;52.236;5.114;2024-02-14T00:05:55;32.08;;;19.52;;
59169;SDS011;52474;52.236;5.114;2024-02-14T00:08:22;32.10;;;18.85;;
59169;SDS011;52474;52.236;5.114;2024-02-14T00:10:48;31.67;;;19.23;;
59169;SDS011;52474;52.236;5.114;2024-02-14T00:13:14;31.85;;;21.30;;
59169;SDS011;52474;52.236;5.114;2024-02-14T00:15:40;32.15;;;20.58;;
59169;SDS011;52474;52.236;5.114;2024-02-14T00:18:07;33.30;;;19.92;;
59169;SDS011;52474;52.236;5.114;2024-02-14T00:20:33;33.85;;;21.30;;
59169;SDS011;52474;52.236;5.114;2024-02-14T00:23:00;34.90;;;21.30;;
59169;SDS011;52474;52.236;5.114;2024-02-14T00:25:27;37.78;;;22.95;;
59169;SDS011;52474;52.236;5.114;2024-02-14T00:27:54;40.75;;;24.70;;
59169;SDS011;52474;52.236;5.114;2024-02-14T00:30:20;43.20;;;23.38;;
59169;SDS011;52474;52.236;5.114;2024-02-14T00:33:08;39.85;;;23.70;;
59169;SDS011;52474;52.236;5.114;2024-02-14T00:35:34;43.22;;;23.83;;
59169;SDS011;52474;52.236;5.114;2024-02-14T00:37:59;38.90;;;22.88;;
59169;SDS011;52474;52.236;5.114;2024-02-14T00:40:25;39.45;;;23.67;;
59169;SDS011;52474;52.236;5.114;2024-02-14T00:42:51;38.58;;;21.88;;
59169;SDS011;52474;52.236;5.114;2024-02-14T00:45:17;41.35;;;24.30;;
59169;SDS011;52474;52.236;5.114;2024-02-14T00:47:42;36.30;;;23.70;;
59169;SDS011;52474;52.236;5.114;2024-02-14T00:50:08;38.78;;;22.13;;
59169;SDS011;52474;52.236;5.114;2024-02-14T00:52:34;42.25;;;24.48;;
59169;SDS011;52474;52.236;5.114;2024-02-14T00:55:00;37.25;;;22.85;;
59169;SDS011;52474;52.236;5.114;2024-02-14T00:59:56;36.78;;;21.40;;
59169;SDS011;52474;52.236;5.114;2024-02-14T01:02:24;37.85;;;22.65;;
59169;SDS011;52474;52.236;5.114;2024-02-14T01:04:51;38.45;;;23.25;;
59169;SDS011;52474;52.236;5.114;2024-02-14T01:07:17;43.03;;;23.38;;
59169;SDS011;52474;52.236;5.114;2024-02-14T01:09:43;40.70;;;22.40;;
59169;SDS011;52474;52.236;5.114;2024-02-14T01:12:08;39.78;;;23.60;;
59169;SDS011;52474;52.236;5.114;2024-02-14T01:14:34;41.13;;;23.63;;
59169;SDS011;52474;52.236;5.114;2024-02-14T01:17:00;39.78;;;23.90;;
59169;SDS011;52474;52.236;5.114;2024-02-14T01:19:25;42.60;;;23.90;;
59169;SDS011;52474;52.236;5.114;2024-02-14T01:21:54;43.50;;;23.75;;
59169;SDS011;52474;52.236;5.114;2024-02-14T01:24:22;39.40;;;24.65;;
59169;SDS011;52474;52.236;5.114;2024-02-14T01:26:48;39.13;;;22.17;;
59169;SDS011;52474;52.236;5.114;2024-02-14T01:29:16;37.90;;;23.13;;
59169;SDS011;52474;52.236;5.114;2024-02-14T01:31:42;38.22;;;22.35;;
59169;SDS011;52474;52.236;5.114;2024-02-14T01:34:07;41.10;;;24.33;;
59169;SDS011;52474;52.236;5.114;2024-02-14T01:36:33;38.08;;;23.80;;
59169;SDS011;52474;52.236;5.114;2024-02-14T01:38:59;39.78;;;23.48;;
59169;SDS011;52474;52.236;5.114;2024-02-14T01:41:25;36.35;;;23.45;;
59169;SDS011;52474;52.236;5.114;2024-02-14T01:43:50;38.55;;;22.90;;
59169;SDS011;52474;52.236;5.114;2024-02-14T01:46:16;43.08;;;22.70;;
59169;SDS011;52474;52.236;5.114;2024-02-14T01:48:52;44.60;;;23.83;;
59169;SDS011;52474;52.236;5.114;2024-02-14T01:51:17;42.00;;;23.50;;
59169;SDS011;52474;52.236;5.114;2024-02-14T01:53:49;41.22;;;24.42;;
59169;SDS011;52474;52.236;5.114;2024-02-14T01:56:16;43.85;;;23.00;;
59169;SDS011;52474;52.236;5.114;2024-02-14T01:58:42;44.50;;;25.25;;
59169;SDS011;52474;52.236;5.114;2024-02-14T02:01:08;47.25;;;26.05;;
59169;SDS011;52474;52.236;5.114;2024-02-14T02:03:35;53.88;;;26.25;;
59169;SDS011;52474;52.236;5.114;2024-02-14T02:06:03;50.55;;;26.73;;
59169;SDS011;52474;52.236;5.114;2024-02-14T02:08:32;47.42;;;25.60;;
59169;SDS011;52474;52.236;5.114;2024-02-14T02:10:58;47.90;;;24.80;;
59169;SDS011;52474;52.236;5.114;2024-02-14T02:13:44;45.05;;;24.02;;
59169;SDS011;52474;52.236;5.114;2024-02-14T02:16:29;46.72;;;27.17;;
59169;SDS011;52474;52.236;5.114;2024-02-14T02:19:15;39.13;;;24.67;;
59169;SDS011;52474;52.236;5.114;2024-02-14T02:22:07;45.35;;;25.33;;
59169;SDS011;52474;52.236;5.114;2024-02-14T02:24:37;45.20;;;24.73;;
59169;SDS011;52474;52.236;5.114;2024-02-14T02:27:03;40.88;;;23.13;;
59169;SDS011;52474;52.236;5.114;2024-02-14T02:29:49;42.67;;;22.90;;
59169;SDS011;52474;52.236;5.114;2024-02-14T02:32:15;44.75;;;24.20;;
59169;SDS011;52474;52.236;5.114;2024-02-14T02:34:41;40.85;;;23.45;;
59169;SDS011;52474;52.236;5.114;2024-02-14T02:37:07;38.67;;;22.83;;
59169;SDS011;52474;52.236;5.114;2024-02-14T02:40:05;37.58;;;23.00;;
59169;SDS011;52474;52.236;5.114;2024-02-14T02:42:58;41.00;;;21.13;;
59169;SDS011;52474;52.236;5.114;2024-02-14T02:45:44;32.95;;;20.90;;
59169;SDS011;52474;52.236;5.114;2024-02-14T02:48:30;35.75;;;20.90;;
59169;SDS011;52474;52.236;5.114;2024-02-14T02:50:58;33.65;;;20.67;;
59169;SDS011;52474;52.236;5.114;2024-02-14T02:53:42;34.25;;;20.98;;
59169;SDS011;52474;52.236;5.114;2024-02-14T02:56:27;35.72;;;19.90;;
59169;SDS011;52474;52.236;5.114;2024-02-14T02:58:57;31.70;;;20.50;;
59169;SDS011;52474;52.236;5.114;2024-02-14T03:01:23;31.65;;;17.88;;
59169;SDS011;52474;52.236;5.114;2024-02-14T03:04:10;34.08;;;19.63;;
59169;SDS011;52474;52.236;5.114;2024-02-14T03:06:55;25.90;;;16.98;;
59169;SDS011;52474;52.236;5.114;2024-02-14T03:09:41;28.63;;;16.77;;
59169;SDS011;52474;52.236;5.114;2024-02-14T03:12:26;29.67;;;17.38;;
59169;SDS011;52474;52.236;5.114;2024-02-14T03:15:15;30.45;;;17.48;;
59169;SDS011;52474;52.236;5.114;2024-02-14T03:17:45;33.08;;;18.02;;
59169;SDS011;52474;52.236;5.114;2024-02-14T03:20:14;28.88;;;18.75;;
59169;SDS011;52474;52.236;5.114;2024-02-14T03:22:43;33.38;;;17.20;;
59169;SDS011;52474;52.236;5.114;2024-02-14T03:25:19;31.75;;;19.42;;
59169;SDS011;52474;52.236;5.114;2024-02-14T03:27:53;35.03;;;19.50;;
59169;SDS011;52474;52.236;5.114;2024-02-14T03:30:19;36.45;;;21.17;;
59169;SDS011;52474;52.236;5.114;2024-02-14T03:32:45;44.45;;;22.00;;
59169;SDS011;52474;52.236;5.114;2024-02-14T03:35:12;42.28;;;22.70;;
59169;SDS011;52474;52.236;5.114;2024-02-14T03:37:41;45.42;;;23.33;;
59169;SDS011;52474;52.236;5.114;2024-02-14T03:40:09;42.25;;;22.63;;
59169;SDS011;52474;52.236;5.114;2024-02-14T03:42:35;49.92;;;25.75;;
59169;SDS011;52474;52.236;5.114;2024-02-14T03:45:01;50.28;;;24.23;;
59169;SDS011;52474;52.236;5.114;2024-02-14T03:47:31;55.00;;;25.92;;
59169;SDS011;52474;52.236;5.114;2024-02-14T03:49:58;55.50;;;26.52;;
59169;SDS011;52474;52.236;5.114;2024-02-14T03:52:25;57.35;;;26.90;;
59169;SDS011;52474;52.236;5.114;2024-02-14T03:54:52;57.55;;;25.27;;
59169;SDS011;52474;52.236;5.114;2024-02-14T03:57:17;54.85;;;24.23;;
59169;SDS011;52474;52.236;5.114;2024-02-14T03:59:43;51.70;;;25.27;;
59169;SDS011;52474;52.236;5.114;2024-02-14T04:02:09;51.53;;;26.80;;
59169;SDS011;52474;52.236;5.114;2024-02-14T04:04:36;59.35;;;28.02;;
59169;SDS011;52474;52.236;5.114;2024-02-14T04:07:02;60.20;;;26.50;;
59169;SDS011;52474;52.236;5.114;2024-02-14T04:09:28;57.92;;;27.77;;
59169;SDS011;52474;52.236;5.114;2024-02-14T04:11:54;62.65;;;28.02;;
59169;SDS011;52474;52.236;5.114;2024-02-14T04:14:20;62.33;;;28.23;;
59169;SDS011;52474;52.236;5.114;2024-02-14T04:16:46;62.38;;;28.13;;
59169;SDS011;52474;52.236;5.114;2024-02-14T04:19:12;58.15;;;26.70;;
59169;SDS011;52474;52.236;5.114;2024-02-14T04:21:38;59.85;;;26.15;;
59169;SDS011;52474;52.236;5.114;2024-02-14T04:24:04;54.95;;;27.92;;
59169;SDS011;52474;52.236;5.114;2024-02-14T04:26:30;59.63;;;25.73;;
59169;SDS011;52474;52.236;5.114;2024-02-14T04:28:55;57.70;;;24.75;;
59169;SDS011;52474;52.236;5.114;2024-02-14T04:31:21;56.92;;;22.60;;
59169;SDS011;52474;52.236;5.114;2024-02-14T04:33:58;56.35;;;24.55;;
59169;SDS011;52474;52.236;5.114;2024-02-14T04:36:24;56.22;;;24.60;;
59169;SDS011;52474;52.236;5.114;2024-02-14T04:38:50;55.15;;;25.13;;
59169;SDS011;52474;52.236;5.114;2024-02-14T04:41:17;52.03;;;25.63;;
59169;SDS011;52474;52.236;5.114;2024-02-14T04:43:42;50.03;;;25.15;;
59169;SDS011;52474;52.236;5.114;2024-02-14T04:46:08;55.92;;;24.75;;
59169;SDS011;52474;52.236;5.114;2024-02-14T04:48:34;54.45;;;25.48;;
59169;SDS011;52474;52.236;5.114;2024-02-14T04:51:01;56.60;;;24.58;;
59169;SDS011;52474;52.236;5.114;2024-02-14T04:53:27;58.75;;;25.02;;
59169;SDS011;52474;52.236;5.114;2024-02-14T04:55:53;57.60;;;25.25;;
59169;SDS011;52474;52.236;5.114;2024-02-14T04:58:19;53.17;;;24.17;;
59169;SDS011;52474;52.236;5.114;2024-02-14T05:00:45;58.45;;;26.35;;
59169;SDS011;52474;52.236;5.114;2024-02-14T05:03:11;53.97;;;23.30;;
59169;SDS011;52474;52.236;5.114;2024-02-14T05:05:37;63.15;;;24.92;;
59169;SDS011;52474;52.236;5.114;2024-02-14T05:08:03;62.92;;;25.75;;
59169;SDS011;52474;52.236;5.114;2024-02-14T05:10:30;60.63;;;25.60;;
59169;SDS011;52474;52.236;5.114;2024-02-14T05:12:56;60.47;;;25.30;;
59169;SDS011;52474;52.236;5.114;2024-02-14T05:15:22;54.72;;;24.65;;
59169;SDS011;52474;52.236;5.114;2024-02-14T05:17:49;56.20;;;25.33;;
59169;SDS011;52474;52.236;5.114;2024-02-14T05:20:15;53.85;;;24.08;;
59169;SDS011;52474;52.236;5.114;2024-02-14T05:22:41;58.60;;;23.77;;
59169;SDS011;52474;52.236;5.114;2024-02-14T05:25:07;55.28;;;25.90;;
59169;SDS011;52474;52.236;5.114;2024-02-14T05:27:48;60.53;;;26.10;;
59169;SDS011;52474;52.236;5.114;2024-02-14T05:30:14;54.35;;;25.67;;
59169;SDS011;52474;52.236;5.114;2024-02-14T05:32:48;50.30;;;24.58;;
59169;SDS011;52474;52.236;5.114;2024-02-14T05:35:14;53.95;;;26.02;;
59169;SDS011;52474;52.236;5.114;2024-02-14T05:37:40;59.60;;;27.23;;
59169;SDS011;52474;52.236;5.114;2024-02-14T05:40:06;60.78;;;26.80;;
59169;SDS011;52474;52.236;5.114;2024-02-14T05:42:33;59.10;;;27.25;;
59169;SDS011;52474;52.236;5.114;2024-02-14T05:44:59;61.70;;;26.40;;
59169;SDS011;52474;52.236;5.114;2024-02-14T05:47:25;65.05;;;27.70;;
59169;SDS011;52474;52.236;5.114;2024-02-14T05:49:51;61.08;;;27.95;;
59169;SDS011;52474;52.236;5.114;2024-02-14T05:52:16;81.13;;;28.52;;
59169;SDS011;52474;52.236;5.114;2024-02-14T05:54:43;68.85;;;27.50;;
59169;SDS011;52474;52.236;5.114;2024-02-14T05:57:09;68.13;;;27.58;;
59169;SDS011;52474;52.236;5.114;2024-02-14T05:59:34;61.00;;;26.75;;
59169;SDS011;52474;52.236;5.114;2024-02-14T06:02:00;69.45;;;26.80;;
59169;SDS011;52474;52.236;5.114;2024-02-14T06:04:28;59.30;;;26.73;;
59169;SDS011;52474;52.236;5.114;2024-02-14T06:06:53;63.20;;;26.98;;
59169;SDS011;52474;52.236;5.114;2024-02-14T06:09:19;78.53;;;26.75;;
59169;SDS011;52474;52.236;5.114;2024-02-14T06:11:45;63.50;;;27.60;;
59169;SDS011;52474;52.236;5.114;2024-02-14T06:14:10;56.67;;;25.63;;
59169;SDS011;52474;52.236;5.114;2024-02-14T06:16:37;58.80;;;25.77;;
59169;SDS011;52474;52.236;5.114;2024-02-14T06:19:03;60.78;;;26.58;;
59169;SDS011;52474;52.236;5.114;2024-02-14T06:21:30;64.53;;;27.35;;
59169;SDS011;52474;52.236;5.114;2024-02-14T06:23:56;55.80;;;24.65;;
59169;SDS011;52474;52.236;5.114;2024-02-14T06:26:24;61.78;;;26.10;;
59169;SDS011;52474;52.236;5.114;2024-02-14T06:28:50;61.88;;;27.58;;
59169;SDS011;52474;52.236;5.114;2024-02-14T06:31:20;60.42;;;26.85;;
59169;SDS011;52474;52.236;5.114;2024-02-14T06:33:49;67.15;;;26.85;;
59169;SDS011;52474;52.236;5.114;2024-02-14T06:36:14;62.78;;;27.80;;
59169;SDS011;52474;52.236;5.114;2024-02-14T06:38:40;80.10;;;28.48;;
59169;SDS011;52474;52.236;5.114;2024-02-14T06:41:06;65.68;;;29.15;;
59169;SDS011;52474;52.236;5.114;2024-02-14T06:43:32;71.32;;;29.83;;
59169;SDS011;52474;52.236;5.114;2024-02-14T06:45:58;68.18;;;28.95;;
59169;SDS011;52474;52.236;5.114;2024-02-14T06:48:30;63.78;;;27.95;;
59169;SDS011;52474;52.236;5.114;2024-02-14T06:50:56;76.22;;;29.02;;
59169;SDS011;52474;52.236;5.114;2024-02-14T06:53:22;68.65;;;27.85;;
59169;SDS011;52474;52.236;5.114;2024-02-14T06:55:48;70.95;;;29.20;;
59169;SDS011;52474;52.236;5.114;2024-02-14T06:58:14;83.07;;;29.25;;
59169;SDS011;52474;52.236;5.114;2024-02-14T07:00:40;74.88;;;28.48;;
59169;SDS011;52474;52.236;5.114;2024-02-14T07:03:06;71.65;;;29.38;;
59169;SDS011;52474;52.236;5.114;2024-02-14T07:05:31;74.75;;;28.33;;
59169;SDS011;52474;52.236;5.114;2024-02-14T07:07:57;74.88;;;29.27;;
59169;SDS011;52474;52.236;5.114;2024-02-14T07:10:23;76.57;;;29.80;;
59169;SDS011;52474;52.236;5.114;2024-02-14T07:12:48;82.40;;;30.77;;
59169;SDS011;52474;52.236;5.114;2024-02-14T07:15:15;78.97;;;28.98;;
59169;SDS011;52474;52.236;5.114;2024-02-14T07:17:40;86.68;;;28.67;;
59169;SDS011;52474;52.236;5.114;2024-02-14T07:20:06;93.22;;;29.35;;
59169;SDS011;52474;52.236;5.114;2024-02-14T07:22:37;86.05;;;31.70;;
59169;SDS011;52474;52.236;5.114;2024-02-14T07:25:03;96.60;;;31.55;;
59169;SDS011;52474;52.236;5.114;2024-02-14T07:27:31;83.22;;;31.05;;
59169;SDS011;52474;52.236;5.114;2024-02-14T07:29:56;103.07;;;32.55;;
59169;SDS011;52474;52.236;5.114;2024-02-14T07:32:22;95.95;;;32.65;;
59169;SDS011;52474;52.236;5.114;2024-02-14T07:34:48;106.32;;;33.67;;
59169;SDS011;52474;52.236;5.114;2024-02-14T07:37:14;99.68;;;32.78;;
59169;SDS011;52474;52.236;5.114;2024-02-14T07:39:45;104.35;;;34.58;;
59169;SDS011;52474;52.236;5.114;2024-02-14T07:42:11;106.07;;;33.72;;
59169;SDS011;52474;52.236;5.114;2024-02-14T07:44:39;100.90;;;33.13;;
59169;SDS011;52474;52.236;5.114;2024-02-14T07:47:08;82.25;;;32.53;;
59169;SDS011;52474;52.236;5.114;2024-02-14T07:49:33;99.50;;;31.90;;
59169;SDS011;52474;52.236;5.114;2024-02-14T07:51:59;93.55;;;33.50;;
59169;SDS011;52474;52.236;5.114;2024-02-14T07:54:26;90.35;;;32.63;;
59169;SDS011;52474;52.236;5.114;2024-02-14T07:56:52;91.35;;;33.25;;
59169;SDS011;52474;52.236;5.114;2024-02-14T07:59:18;91.72;;;31.77;;
59169;SDS011;52474;52.236;5.114;2024-02-14T08:01:45;103.25;;;33.67;;
59169;SDS011;52474;52.236;5.114;2024-02-14T08:04:11;108.88;;;33.42;;
59169;SDS011;52474;52.236;5.114;2024-02-14T08:06:37;104.20;;;33.67;;
59169;SDS011;52474;52.236;5.114;2024-02-14T08:09:03;92.93;;;32.70;;
59169;SDS011;52474;52.236;5.114;2024-02-14T08:11:32;93.88;;;30.15;;
59169;SDS011;52474;52.236;5.114;2024-02-14T08:13:58;80.07;;;29.77;;
59169;SDS011;52474;52.236;5.114;2024-02-14T08:16:25;90.80;;;30.15;;
59169;SDS011;52474;52.236;5.114;2024-02-14T08:18:51;85.53;;;30.02;;
59169;SDS011;52474;52.236;5.114;2024-02-14T08:21:24;72.13;;;28.75;;
59169;SDS011;52474;52.236;5.114;2024-02-14T08:23:51;77.30;;;27.80;;
59169;SDS011;52474;52.236;5.114;2024-02-14T08:26:18;69.72;;;26.13;;
59169;SDS011;52474;52.236;5.114;2024-02-14T08:28:44;63.33;;;27.15;;
59169;SDS011;52474;52.236;5.114;2024-02-14T08:31:10;74.00;;;26.25;;
59169;SDS011;52474;52.236;5.114;2024-02-14T08:33:37;71.80;;;26.50;;
59169;SDS011;52474;52.236;5.114;2024-02-14T08:36:03;73.75;;;26.90;;
59169;SDS011;52474;52.236;5.114;2024-02-14T08:38:30;71.55;;;25.95;;
59169;SDS011;52474;52.236;5.114;2024-02-14T08:40:55;62.58;;;26.77;;
59169;SDS011;52474;52.236;5.114;2024-02-14T08:43:22;64.88;;;26.45;;
59169;SDS011;52474;52.236;5.114;2024-02-14T08:45:49;70.32;;;26.30;;
59169;SDS011;52474;52.236;5.114;2024-02-14T08:48:17;66.60;;;27.30;;
59169;SDS011;52474;52.236;5.114;2024-02-14T08:50:44;66.60;;;25.45;;
59169;SDS011;52474;52.236;5.114;2024-02-14T08:53:11;81.88;;;26.33;;
59169;SDS011;52474;52.236;5.114;2024-02-14T08:55:42;57.70;;;23.35;;
59169;SDS011;52474;52.236;5.114;2024-02-14T08:58:08;57.27;;;23.13;;
59169;SDS011;52474;52.236;5.114;2024-02-14T09:00:40;54.65;;;23.50;;
59169;SDS011;52474;52.236;5.114;2024-02-14T09:03:06;68.13;;;22.42;;
59169;SDS011;52474;52.236;5.114;2024-02-14T09:05:32;57.38;;;22.35;;
59169;SDS011;52474;52.236;5.114;2024-02-14T09:07:57;43.55;;;20.08;;
59169;SDS011;52474;52.236;5.114;2024-02-14T09:10:24;38.80;;;17.83;;
59169;SDS011;52474;52.236;5.114;2024-02-14T09:12:50;33.15;;;17.75;;
59169;SDS011;52474;52.236;5.114;2024-02-14T09:15:16;33.90;;;16.10;;
59169;SDS011;52474;52.236;5.114;2024-02-14T09:17:42;29.85;;;15.35;;
59169;SDS011;52474;52.236;5.114;2024-02-14T09:20:08;24.70;;;14.10;;
59169;SDS011;52474;52.236;5.114;2024-02-14T09:22:35;29.67;;;14.48;;
59169;SDS011;52474;52.236;5.114;2024-02-14T09:25:01;25.85;;;14.07;;
59169;SDS011;52474;52.236;5.114;2024-02-14T09:27:31;29.15;;;15.35;;
59169;SDS011;52474;52.236;5.114;2024-02-14T09:29:58;27.88;;;13.95;;
59169;SDS011;52474;52.236;5.114;2024-02-14T09:32:24;27.63;;;14.18;;
59169;SDS011;52474;52.236;5.114;2024-02-14T09:34:50;32.47;;;14.45;;
59169;SDS011;52474;52.236;5.114;2024-02-14T09:37:16;21.80;;;12.63;;
59169;SDS011;52474;52.236;5.114;2024-02-14T09:39:42;26.88;;;12.63;;
59169;SDS011;52474;52.236;5.114;2024-02-14T09:42:12;25.05;;;13.70;;
59169;SDS011;52474;52.236;5.114;2024-02-14T09:44:39;31.35;;;15.30;;
59169;SDS011;52474;52.236;5.114;2024-02-14T09:47:06;35.92;;;16.35;;
59169;SDS011;52474;52.236;5.114;2024-02-14T09:49:33;33.22;;;15.88;;
59169;SDS011;52474;52.236;5.114;2024-02-14T09:52:01;39.38;;;17.30;;
59169;SDS011;52474;52.236;5.114;2024-02-14T09:54:31;43.58;;;18.20;;
59169;SDS011;52474;52.236;5.114;2024-02-14T09:56:59;42.88;;;19.00;;
59169;SDS011;52474;52.236;5.114;2024-02-14T09:59:27;41.58;;;18.50;;
59169;SDS011;52474;52.236;5.114;2024-02-14T10:01:54;53.50;;;22.08;;
59169;SDS011;52474;52.236;5.114;2024-02-14T10:04:20;50.03;;;21.20;;
59169;SDS011;52474;52.236;5.114;2024-02-14T10:06:47;56.60;;;21.23;;
59169;SDS011;52474;52.236;5.114;2024-02-14T10:09:21;49.30;;;21.73;;
59169;SDS011;52474;52.236;5.114;2024-02-14T10:11:48;48.78;;;20.92;;
59169;SDS011;52474;52.236;5.114;2024-02-14T10:14:14;49.60;;;20.58;;
59169;SDS011;52474;52.236;5.114;2024-02-14T10:16:42;42.88;;;20.30;;
59169;SDS011;52474;52.236;5.114;2024-02-14T10:19:14;38.45;;;19.63;;
59169;SDS011;52474;52.236;5.114;2024-02-14T10:21:44;41.10;;;19.55;;
59169;SDS011;52474;52.236;5.114;2024-02-14T10:24:21;39.03;;;17.80;;
59169;SDS011;52474;52.236;5.114;2024-02-14T10:26:49;37.67;;;17.45;;
59169;SDS011;52474;52.236;5.114;2024-02-14T10:29:15;29.73;;;15.13;;
59169;SDS011;52474;52.236;5.114;2024-02-14T10:31:41;25.75;;;14.00;;
59169;SDS011;52474;52.236;5.114;2024-02-14T10:34:06;30.67;;;15.65;;
59169;SDS011;52474;52.236;5.114;2024-02-14T10:36:34;28.77;;;14.80;;
59169;SDS011;52474;52.236;5.114;2024-02-14T10:39:01;29.33;;;15.95;;
59169;SDS011;52474;52.236;5.114;2024-02-14T10:41:30;26.15;;;14.10;;
59169;SDS011;52474;52.236;5.114;2024-02-14T10:44:04;28.05;;;13.80;;
59169;SDS011;52474;52.236;5.114;2024-02-14T10:46:34;25.55;;;13.25;;
59169;SDS011;52474;52.236;5.114;2024-02-14T10:49:03;24.75;;;13.48;;
59169;SDS011;52474;52.236;5.114;2024-02-14T10:51:31;27.27;;;13.45;;
59169;SDS011;52474;52.236;5.114;2024-02-14T10:54:03;25.65;;;13.30;;
59169;SDS011;52474;52.236;5.114;2024-02-14T10:56:34;22.85;;;12.45;;
59169;SDS011;52474;52.236;5.114;2024-02-14T10:59:07;19.75;;;11.80;;
59169;SDS011;52474;52.236;5.114;2024-02-14T11:01:35;18.45;;;10.70;;
59169;SDS011;52474;52.236;5.114;2024-02-14T11:04:04;17.85;;;10.30;;
59169;SDS011;52474;52.236;5.114;2024-02-14T11:06:30;21.92;;;10.48;;
59169;SDS011;52474;52.236;5.114;2024-02-14T11:09:03;20.10;;;10.10;;
59169;SDS011;52474;52.236;5.114;2024-02-14T11:11:34;17.17;;;9.82;;
59169;SDS011;52474;52.236;5.114;2024-02-14T11:13:59;16.23;;;9.70;;
59169;SDS011;52474;52.236;5.114;2024-02-14T11:16:26;18.15;;;10.07;;
59169;SDS011;52474;52.236;5.114;2024-02-14T11:18:54;18.48;;;10.18;;
59169;SDS011;52474;52.236;5.114;2024-02-14T11:21:34;19.98;;;11.00;;
59169;SDS011;52474;52.236;5.114;2024-02-14T11:24:04;24.00;;;12.47;;
59169;SDS011;52474;52.236;5.114;2024-02-14T11:26:39;17.92;;;12.07;;
59169;SDS011;52474;52.236;5.114;2024-02-14T11:29:14;20.77;;;12.77;;
59169;SDS011;52474;52.236;5.114;2024-02-14T11:31:44;20.05;;;13.20;;
59169;SDS011;52474;52.236;5.114;2024-02-14T11:34:13;20.95;;;12.82;;
59169;SDS011;52474;52.236;5.114;2024-02-14T11:36:43;23.60;;;13.48;;
59169;SDS011;52474;52.236;5.114;2024-02-14T11:39:10;22.02;;;12.98;;
59169;SDS011;52474;52.236;5.114;2024-02-14T11:41:38;22.08;;;14.27;;
59169;SDS011;52474;52.236;5.114;2024-02-14T11:44:04;18.95;;;12.68;;
59169;SDS011;52474;52.236;5.114;2024-02-14T11:46:31;23.25;;;13.82;;
59169;SDS011;52474;52.236;5.114;2024-02-14T11:51:30;24.30;;;12.63;;
59169;SDS011;52474;52.236;5.114;2024-02-14T11:54:00;27.65;;;15.10;;
59169;SDS011;52474;52.236;5.114;2024-02-14T11:56:31;27.55;;;14.32;;
59169;SDS011;52474;52.236;5.114;2024-02-14T11:59:03;24.17;;;13.63;;
59169;SDS011;52474;52.236;5.114;2024-02-14T12:01:34;26.05;;;13.85;;
59169;SDS011;52474;52.236;5.114;2024-02-14T12:04:01;25.65;;;14.65;;
59169;SDS011;52474;52.236;5.114;2024-02-14T12:06:29;29.50;;;14.57;;
59169;SDS011;52474;52.236;5.114;2024-02-14T12:09:03;28.23;;;15.57;;
59169;SDS011;52474;52.236;5.114;2024-02-14T12:11:35;30.35;;;15.60;;
59169;SDS011;52474;52.236;5.114;2024-02-14T12:14:08;27.73;;;14.93;;
59169;SDS011;52474;52.236;5.114;2024-02-14T12:16:40;25.35;;;14.10;;
59169;SDS011;52474;52.236;5.114;2024-02-14T12:19:09;25.65;;;13.45;;
59169;SDS011;52474;52.236;5.114;2024-02-14T12:21:41;24.60;;;13.18;;
59169;SDS011;52474;52.236;5.114;2024-02-14T12:26:38;21.67;;;13.07;;
59169;SDS011;52474;52.236;5.114;2024-02-14T12:29:08;20.52;;;12.38;;
59169;SDS011;52474;52.236;5.114;2024-02-14T12:31:40;20.38;;;11.73;;
59169;SDS011;52474;52.236;5.114;2024-02-14T12:34:10;21.70;;;12.60;;
59169;SDS011;52474;52.236;5.114;2024-02-14T12:36:39;19.52;;;12.23;;
59169;SDS011;52474;52.236;5.114;2024-02-14T12:39:08;19.77;;;11.07;;
59169;SDS011;52474;52.236;5.114;2024-02-14T12:41:37;18.98;;;11.50;;
59169;SDS011;52474;52.236;5.114;2024-02-14T12:44:05;16.70;;;11.27;;
59169;SDS011;52474;52.236;5.114;2024-02-14T12:46:54;17.38;;;11.50;;
59169;SDS011;52474;52.236;5.114;2024-02-14T12:49:22;17.70;;;10.85;;
59169;SDS011;52474;52.236;5.114;2024-02-14T12:51:54;17.45;;;11.52;;
59169;SDS011;52474;52.236;5.114;2024-02-14T12:54:33;17.40;;;12.20;;
59169;SDS011;52474;52.236;5.114;2024-02-14T12:57:00;19.90;;;11.85;;
59169;SDS011;52474;52.236;5.114;2024-02-14T12:59:30;17.27;;;11.23;;
59169;SDS011;52474;52.236;5.114;2024-02-14T13:01:59;20.23;;;11.03;;
59169;SDS011;52474;52.236;5.114;2024-02-14T13:04:26;18.33;;;10.75;;
59169;SDS011;52474;52.236;5.114;2024-02-14T13:06:55;16.85;;;10.18;;
59169;SDS011;52474;52.236;5.114;2024-02-14T13:09:21;20.27;;;10.85;;
59169;SDS011;52474;52.236;5.114;2024-02-14T13:11:47;18.90;;;10.50;;
59169;SDS011;52474;52.236;5.114;2024-02-14T13:14:13;19.45;;;10.90;;
59169;SDS011;52474;52.236;5.114;2024-02-14T13:16:42;21.70;;;11.05;;
59169;SDS011;52474;52.236;5.114;2024-02-14T13:19:08;19.65;;;10.90;;
59169;SDS011;52474;52.236;5.114;2024-02-14T13:21:34;19.95;;;11.30;;
59169;SDS011;52474;52.236;5.114;2024-02-14T13:24:00;20.27;;;11.85;;
59169;SDS011;52474;52.236;5.114;2024-02-14T13:26:25;19.30;;;11.75;;
59169;SDS011;52474;52.236;5.114;2024-02-14T13:28:53;20.23;;;11.75;;
59169;SDS011;52474;52.236;5.114;2024-02-14T13:31:20;23.38;;;11.70;;
59169;SDS011;52474;52.236;5.114;2024-02-14T13:33:46;20.05;;;12.00;;
59169;SDS011;52474;52.236;5.114;2024-02-14T13:36:12;17.73;;;11.07;;
59169;SDS011;52474;52.236;5.114;2024-02-14T13:38:40;19.60;;;11.90;;
59169;SDS011;52474;52.236;5.114;2024-02-14T13:41:06;17.95;;;10.63;;
59169;SDS011;52474;52.236;5.114;2024-02-14T13:43:32;18.55;;;11.13;;
59169;SDS011;52474;52.236;5.114;2024-02-14T13:45:58;19.45;;;11.10;;
59169;SDS011;52474;52.236;5.114;2024-02-14T13:48:24;23.35;;;11.80;;
59169;SDS011;52474;52.236;5.114;2024-02-14T13:50:50;16.88;;;10.65;;
59169;SDS011;52474;52.236;5.114;2024-02-14T13:53:19;19.30;;;12.27;;
59169;SDS011;52474;52.236;5.114;2024-02-14T13:55:48;19.40;;;11.45;;
59169;SDS011;52474;52.236;5.114;2024-02-14T13:58:14;17.02;;;11.02;;
59169;SDS011;52474;52.236;5.114;2024-02-14T14:00:42;18.13;;;11.02;;
59169;SDS011;52474;52.236;5.114;2024-02-14T14:03:08;20.17;;;10.68;;
59169;SDS011;52474;52.236;5.114;2024-02-14T14:05:34;18.05;;;10.75;;
59169;SDS011;52474;52.236;5.114;2024-02-14T14:08:00;18.33;;;10.65;;
59169;SDS011;52474;52.236;5.114;2024-02-14T14:10:26;17.52;;;10.48;;
59169;SDS011;52474;52.236;5.114;2024-02-14T14:12:53;21.77;;;11.18;;
59169;SDS011;52474;52.236;5.114;2024-02-14T14:15:19;18.88;;;11.55;;
59169;SDS011;52474;52.236;5.114;2024-02-14T14:17:45;21.42;;;11.68;;
59169;SDS011;52474;52.236;5.114;2024-02-14T14:20:11;20.67;;;12.20;;
59169;SDS011;52474;52.236;5.114;2024-02-14T14:22:36;24.17;;;12.25;;
59169;SDS011;52474;52.236;5.114;2024-02-14T14:25:04;22.60;;;11.88;;
59169;SDS011;52474;52.236;5.114;2024-02-14T14:27:31;20.80;;;11.48;;
59169;SDS011;52474;52.236;5.114;2024-02-14T14:29:57;22.33;;;11.73;;
59169;SDS011;52474;52.236;5.114;2024-02-14T14:32:23;21.63;;;11.23;;
59169;SDS011;52474;52.236;5.114;2024-02-14T14:34:49;20.33;;;10.75;;